Time;durP1;ratioP1;P1;durP2;ratioP2;P2;SDS_P1;SDS_P2;PMS_P1;PMS_P2;Temp;Humidity;BMP_temperature;BMP_pressure;BME280_temperature;BME280_humidity;BME280_pressure;Samples;Min_cycle;Max_cycle;Signal;HPM_P1;HPM_P2
2022/08/18 00:01:53;;;;;;;87.32;52.70;;;;;;;;;;4970108;28;20041;-64
2022/08/18 00:04:18;;;;;;;87.70;52.60;;;;;;;;;;4969301;28;20023;-65
2022/08/18 00:06:43;;;;;;;82.25;51.05;;;;;;;;;;4972690;28;20117;-64
2022/08/18 00:09:09;;;;;;;87.90;53.40;;;;;;;;;;4970671;28;20039;-69
2022/08/18 00:11:41;;;;;;;88.28;53.85;;;;;;;;;;4969438;28;20027;-64
2022/08/18 00:14:13;;;;;;;88.95;52.65;;;;;;;;;;4970750;28;20037;-69
2022/08/18 00:16:39;;;;;;;101.65;57.08;;;;;;;;;;4972474;28;20152;-64
2022/08/18 00:19:04;;;;;;;91.95;53.38;;;;;;;;;;4970387;28;20459;-64
2022/08/18 00:21:29;;;;;;;82.68;51.65;;;;;;;;;;4971497;28;20080;-65
2022/08/18 00:23:55;;;;;;;90.07;53.45;;;;;;;;;;4971007;28;20038;-64
2022/08/18 00:26:21;;;;;;;86.00;51.95;;;;;;;;;;4969480;28;20086;-64
2022/08/18 00:28:46;;;;;;;86.95;52.95;;;;;;;;;;4973038;28;20519;-64
2022/08/18 00:31:12;;;;;;;86.45;52.60;;;;;;;;;;4970590;28;20455;-65
2022/08/18 00:33:37;;;;;;;85.75;53.08;;;;;;;;;;4971656;28;20030;-69
2022/08/18 00:36:03;;;;;;;87.03;52.25;;;;;;;;;;4970343;28;20035;-64
2022/08/18 00:38:28;;;;;;;86.57;52.30;;;;;;;;;;4970506;28;20220;-64
2022/08/18 00:40:55;;;;;;;84.75;51.80;;;;;;;;;;4970708;28;20051;-69
2022/08/18 00:43:42;;;;;;;85.60;52.30;;;;;;;;;;4969109;28;20031;-64
2022/08/18 00:46:15;;;;;;;89.63;52.53;;;;;;;;;;4970583;28;20440;-69
2022/08/18 00:48:41;;;;;;;91.63;54.67;;;;;;;;;;4964190;28;20101;-65
2022/08/18 00:51:11;;;;;;;96.95;54.35;;;;;;;;;;4970655;28;20468;-66
2022/08/18 00:53:42;;;;;;;90.13;54.30;;;;;;;;;;4970120;28;20047;-65
2022/08/18 00:56:15;;;;;;;94.53;54.13;;;;;;;;;;4970211;28;20272;-70
2022/08/18 00:58:46;;;;;;;99.15;56.63;;;;;;;;;;4970450;28;20045;-65
2022/08/18 01:01:14;;;;;;;99.30;55.83;;;;;;;;;;4974230;28;20506;-70
2022/08/18 01:03:42;;;;;;;91.47;54.22;;;;;;;;;;4971119;28;20503;-65
2022/08/18 01:06:16;;;;;;;93.60;54.10;;;;;;;;;;4975744;28;20522;-65
2022/08/18 01:08:41;;;;;;;97.88;54.78;;;;;;;;;;4970188;28;20042;-65
2022/08/18 01:11:09;;;;;;;96.85;56.90;;;;;;;;;;4972297;28;20039;-65
2022/08/18 01:13:37;;;;;;;97.25;55.35;;;;;;;;;;4970052;28;20490;-64
2022/08/18 01:21:49;;;;;;;93.68;54.92;;;;;;;;;;4975335;28;20040;-64
2022/08/18 01:21:52;;;;;;;99.88;55.03;;;;;;;;;;4972331;28;20045;-65
2022/08/18 01:27:18;;;;;;;;;;;;;;;;;;4971831;28;20449;-65
2022/08/18 01:29:46;;;;;;;99.25;54.00;;;;;;;;;;4976185;28;20347;-65
2022/08/18 01:32:20;;;;;;;103.45;56.50;;;;;;;;;;4972265;28;20037;-69
2022/08/18 01:34:47;;;;;;;105.85;57.45;;;;;;;;;;4972572;28;20054;-64
2022/08/18 01:37:15;;;;;;;109.50;58.88;;;;;;;;;;4968366;28;20027;-70
2022/08/18 01:39:42;;;;;;;106.05;57.10;;;;;;;;;;4966210;28;20110;-65
2022/08/18 01:42:07;;;;;;;103.53;57.05;;;;;;;;;;4970102;28;20026;-64
2022/08/18 01:44:33;;;;;;;102.53;56.35;;;;;;;;;;4974132;28;20030;-66
2022/08/18 01:46:58;;;;;;;98.88;54.58;;;;;;;;;;4972412;28;20154;-65
2022/08/18 01:49:24;;;;;;;98.00;55.55;;;;;;;;;;4974189;28;20204;-66
2022/08/18 01:51:49;;;;;;;87.88;50.90;;;;;;;;;;4973141;28;20058;-64
2022/08/18 01:54:14;;;;;;;83.63;49.03;;;;;;;;;;4971354;28;20046;-69
2022/08/18 01:56:41;;;;;;;83.57;50.00;;;;;;;;;;4974799;28;20407;-65
2022/08/18 01:59:12;;;;;;;78.43;48.25;;;;;;;;;;4974898;28;20058;-64
2022/08/18 02:01:38;;;;;;;75.68;48.28;;;;;;;;;;4970575;28;20530;-65
2022/08/18 02:04:06;;;;;;;73.60;47.40;;;;;;;;;;4974768;28;20039;-66
2022/08/18 02:06:32;;;;;;;74.55;48.17;;;;;;;;;;4972329;28;20485;-65
2022/08/18 02:08:57;;;;;;;75.43;47.80;;;;;;;;;;4972879;28;20110;-65
2022/08/18 02:11:23;;;;;;;75.90;46.92;;;;;;;;;;4972900;28;20107;-64
2022/08/18 02:13:48;;;;;;;74.88;47.92;;;;;;;;;;4973927;28;20038;-65
2022/08/18 02:16:15;;;;;;;80.07;49.65;;;;;;;;;;4972525;28;20105;-69
2022/08/18 02:18:41;;;;;;;78.60;48.90;;;;;;;;;;4973022;28;20041;-65
2022/08/18 02:21:16;;;;;;;76.30;48.65;;;;;;;;;;4974670;28;20392;-64
2022/08/18 02:23:42;;;;;;;78.10;48.85;;;;;;;;;;4973124;28;20109;-65
2022/08/18 02:26:11;;;;;;;77.93;48.45;;;;;;;;;;4973089;28;20519;-64
2022/08/18 02:28:36;;;;;;;85.00;48.60;;;;;;;;;;4971668;28;20035;-65
2022/08/18 02:31:07;;;;;;;86.47;50.50;;;;;;;;;;4973381;28;20089;-65
2022/08/18 02:33:33;;;;;;;80.25;49.08;;;;;;;;;;4969050;28;20045;-66
2022/08/18 02:35:58;;;;;;;84.18;49.90;;;;;;;;;;4972934;28;20038;-64
2022/08/18 02:38:24;;;;;;;83.78;50.33;;;;;;;;;;4971225;28;20081;-65
2022/08/18 02:40:57;;;;;;;93.82;51.78;;;;;;;;;;4971847;28;20027;-70
2022/08/18 02:43:23;;;;;;;98.97;53.13;;;;;;;;;;4961618;28;20027;-65
2022/08/18 02:45:49;;;;;;;103.72;52.75;;;;;;;;;;4973097;28;20110;-65
2022/08/18 02:48:14;;;;;;;103.45;52.28;;;;;;;;;;4973081;28;20026;-70
2022/08/18 02:50:48;;;;;;;108.72;54.63;;;;;;;;;;4973628;28;20110;-65
2022/08/18 02:53:20;;;;;;;108.20;55.00;;;;;;;;;;4971316;28;20027;-65
2022/08/18 02:55:45;;;;;;;111.97;56.05;;;;;;;;;;4972486;28;20101;-65
2022/08/18 02:58:12;;;;;;;116.60;55.50;;;;;;;;;;4972124;28;20043;-64
2022/08/18 03:00:37;;;;;;;104.93;54.15;;;;;;;;;;4973822;28;20113;-65
2022/08/18 03:03:03;;;;;;;107.95;53.67;;;;;;;;;;4970455;28;20191;-64
2022/08/18 03:05:29;;;;;;;115.60;55.97;;;;;;;;;;4971678;28;20503;-65
2022/08/18 03:07:54;;;;;;;115.18;55.20;;;;;;;;;;4967084;28;20065;-64
2022/08/18 03:10:20;;;;;;;119.28;56.30;;;;;;;;;;4970555;28;20039;-72
2022/08/18 03:12:45;;;;;;;114.57;55.10;;;;;;;;;;4966081;28;20027;-65
2022/08/18 03:15:11;;;;;;;120.85;55.17;;;;;;;;;;4973502;28;20030;-64
2022/08/18 03:17:37;;;;;;;118.93;55.50;;;;;;;;;;4969598;28;20042;-66
2022/08/18 03:20:03;;;;;;;125.28;57.42;;;;;;;;;;4972859;28;20027;-65
2022/08/18 03:22:29;;;;;;;123.97;57.17;;;;;;;;;;4969675;28;20475;-64
2022/08/18 03:24:54;;;;;;;123.72;56.30;;;;;;;;;;4973506;28;20027;-65
2022/08/18 03:27:20;;;;;;;123.13;55.40;;;;;;;;;;4969849;28;20464;-71
2022/08/18 03:29:45;;;;;;;129.20;58.53;;;;;;;;;;4973217;28;20035;-65
2022/08/18 03:32:10;;;;;;;137.82;59.15;;;;;;;;;;4971714;28;20081;-65
2022/08/18 03:34:36;;;;;;;131.60;56.78;;;;;;;;;;4972158;28;20694;-66
2022/08/18 03:37:01;;;;;;;129.77;55.63;;;;;;;;;;4966924;28;20035;-66
2022/08/18 03:39:27;;;;;;;136.20;57.15;;;;;;;;;;4967091;28;20034;-65
2022/08/18 03:41:53;;;;;;;148.82;60.20;;;;;;;;;;4971015;28;20037;-69
2022/08/18 03:44:20;;;;;;;144.18;56.50;;;;;;;;;;4971842;28;20537;-70
2022/08/18 03:46:46;;;;;;;142.68;58.25;;;;;;;;;;4969517;28;20091;-65
2022/08/18 03:49:12;;;;;;;159.27;61.70;;;;;;;;;;4972169;28;20418;-66
2022/08/18 03:51:42;;;;;;;153.15;60.15;;;;;;;;;;4969901;28;20031;-65
2022/08/18 03:54:08;;;;;;;155.10;59.00;;;;;;;;;;4972446;28;20111;-67
2022/08/18 03:56:37;;;;;;;158.15;56.78;;;;;;;;;;4967995;28;20495;-65
2022/08/18 03:59:23;;;;;;;150.57;56.45;;;;;;;;;;4972829;28;20038;-64
2022/08/18 04:01:52;;;;;;;163.10;58.42;;;;;;;;;;4962964;28;20042;-65
2022/08/18 04:04:20;;;;;;;165.30;58.30;;;;;;;;;;4971409;28;20027;-66
2022/08/18 04:06:57;;;;;;;161.90;58.72;;;;;;;;;;4971640;28;20118;-68
2022/08/18 04:09:24;;;;;;;158.65;57.13;;;;;;;;;;4969886;28;20056;-72
2022/08/18 04:11:50;;;;;;;160.57;57.10;;;;;;;;;;4972805;28;20055;-65
2022/08/18 04:14:19;;;;;;;167.02;58.75;;;;;;;;;;4972475;28;20514;-65
2022/08/18 04:16:45;;;;;;;160.98;57.25;;;;;;;;;;4971154;28;20126;-65
2022/08/18 04:19:12;;;;;;;168.20;58.42;;;;;;;;;;4972751;28;20041;-65
2022/08/18 04:21:40;;;;;;;164.63;59.75;;;;;;;;;;4971455;28;20069;-65
2022/08/18 04:24:06;;;;;;;162.90;59.13;;;;;;;;;;4971858;28;20045;-65
2022/08/18 04:26:38;;;;;;;159.77;58.58;;;;;;;;;;4971911;28;20566;-65
2022/08/18 04:29:05;;;;;;;159.20;59.83;;;;;;;;;;4974332;28;20090;-64
2022/08/18 04:31:31;;;;;;;157.45;58.88;;;;;;;;;;4971503;28;20061;-66
2022/08/18 04:33:59;;;;;;;161.55;59.90;;;;;;;;;;4969297;28;20101;-66
2022/08/18 04:36:26;;;;;;;154.43;56.92;;;;;;;;;;4970637;28;20031;-70
2022/08/18 04:38:51;;;;;;;141.45;55.42;;;;;;;;;;4972545;28;20046;-65
2022/08/18 04:41:17;;;;;;;115.72;50.83;;;;;;;;;;4971572;28;20031;-65
2022/08/18 04:43:43;;;;;;;114.53;51.22;;;;;;;;;;4969456;28;20483;-66
2022/08/18 04:46:10;;;;;;;116.63;49.28;;;;;;;;;;4972900;28;20038;-65
2022/08/18 04:48:40;;;;;;;123.47;52.80;;;;;;;;;;4971471;28;20070;-65
2022/08/18 04:51:10;;;;;;;117.97;50.17;;;;;;;;;;4973242;28;20559;-65
2022/08/18 04:53:45;;;;;;;109.15;49.97;;;;;;;;;;4971311;28;20506;-65
2022/08/18 04:56:24;;;;;;;98.53;46.08;;;;;;;;;;4972924;28;20125;-65
2022/08/18 04:58:51;;;;;;;91.63;44.78;;;;;;;;;;4970266;28;20045;-65
2022/08/18 05:01:23;;;;;;;85.60;44.40;;;;;;;;;;4971416;28;20026;-65
2022/08/18 05:03:49;;;;;;;81.90;41.85;;;;;;;;;;4972607;28;20114;-65
2022/08/18 05:06:16;;;;;;;75.10;41.05;;;;;;;;;;4970511;28;20042;-65
2022/08/18 05:08:41;;;;;;;71.93;39.97;;;;;;;;;;4971189;28;20495;-65
2022/08/18 05:11:08;;;;;;;69.47;40.13;;;;;;;;;;4971486;28;20039;-65
2022/08/18 05:13:33;;;;;;;72.40;39.88;;;;;;;;;;4969874;28;20451;-67
2022/08/18 05:16:02;;;;;;;67.80;38.70;;;;;;;;;;4968658;28;20035;-66
2022/08/18 05:18:32;;;;;;;67.93;39.38;;;;;;;;;;4952988;28;20433;-65
2022/08/18 05:20:59;;;;;;;63.60;37.63;;;;;;;;;;4968965;28;20042;-65
2022/08/18 05:23:25;;;;;;;65.78;36.58;;;;;;;;;;4972255;28;20489;-71
2022/08/18 05:25:59;;;;;;;65.05;37.22;;;;;;;;;;4968949;28;20058;-65
2022/08/18 05:28:25;;;;;;;71.45;39.20;;;;;;;;;;4972706;28;20464;-70
2022/08/18 05:30:50;;;;;;;76.95;40.88;;;;;;;;;;4956316;28;20039;-66
2022/08/18 05:33:15;;;;;;;87.88;43.88;;;;;;;;;;4970109;28;20026;-66
2022/08/18 05:35:53;;;;;;;93.10;44.85;;;;;;;;;;4970910;28;20041;-65
2022/08/18 05:38:45;;;;;;;105.72;46.88;;;;;;;;;;4970746;28;20037;-66
2022/08/18 05:41:19;;;;;;;109.47;49.78;;;;;;;;;;4955195;28;20083;-65
2022/08/18 05:43:47;;;;;;;121.65;52.45;;;;;;;;;;4968764;28;20034;-66
2022/08/18 05:46:14;;;;;;;117.32;52.00;;;;;;;;;;4976125;28;20128;-65
2022/08/18 05:48:39;;;;;;;119.20;52.08;;;;;;;;;;4973521;28;20034;-65
2022/08/18 05:51:25;;;;;;;127.45;53.60;;;;;;;;;;4974017;28;20154;-66
2022/08/18 05:56:45;;;;;;;121.72;51.45;;;;;;;;;;4974111;28;20109;-66
2022/08/18 05:59:16;;;;;;;132.30;52.10;;;;;;;;;;4974535;28;20070;-65
2022/08/18 06:01:45;;;;;;;121.93;50.97;;;;;;;;;;4966171;28;20118;-66
2022/08/18 06:04:23;;;;;;;121.03;49.60;;;;;;;;;;4968026;28;20490;-66
2022/08/18 06:06:50;;;;;;;126.10;49.42;;;;;;;;;;4973022;28;20037;-69
2022/08/18 06:09:28;;;;;;;123.35;51.22;;;;;;;;;;4972212;28;20047;-66
2022/08/18 06:12:04;;;;;;;122.30;50.22;;;;;;;;;;4968547;28;20043;-66
2022/08/18 06:14:29;;;;;;;123.32;49.15;;;;;;;;;;4972668;28;20110;-71
2022/08/18 06:17:11;;;;;;;119.07;49.55;;;;;;;;;;4975002;28;20082;-66
2022/08/18 06:19:37;;;;;;;114.78;47.83;;;;;;;;;;4973864;28;20550;-65
2022/08/18 06:22:17;;;;;;;102.40;45.67;;;;;;;;;;4974665;28;20070;-66
2022/08/18 06:25:00;;;;;;;111.25;47.38;;;;;;;;;;4973704;28;20043;-66
2022/08/18 06:27:40;;;;;;;102.40;45.63;;;;;;;;;;4969219;28;20047;-66
2022/08/18 06:30:43;;;;;;;98.63;45.30;;;;;;;;;;4975408;28;20483;-66
2022/08/18 06:33:22;;;;;;;98.93;44.20;;;;;;;;;;4973504;28;20066;-65
2022/08/18 06:35:50;;;;;;;100.68;44.95;;;;;;;;;;4973734;28;20027;-66
2022/08/18 06:41:07;;;;;;;105.55;45.55;;;;;;;;;;4964879;28;20410;-66
2022/08/18 06:43:35;;;;;;;109.90;45.55;;;;;;;;;;4974786;28;20039;-67
2022/08/18 06:46:06;;;;;;;100.60;45.40;;;;;;;;;;4973924;28;20038;-64
2022/08/18 06:48:56;;;;;;;112.32;48.03;;;;;;;;;;4974612;28;20103;-68
2022/08/18 06:51:26;;;;;;;109.90;46.38;;;;;;;;;;4973722;28;20126;-64
2022/08/18 06:53:54;;;;;;;106.50;46.40;;;;;;;;;;4963034;28;20061;-64
2022/08/18 06:56:34;;;;;;;103.88;45.35;;;;;;;;;;4965556;28;20058;-65
2022/08/18 06:59:14;;;;;;;107.38;46.03;;;;;;;;;;4972469;28;20109;-65
2022/08/18 07:01:40;;;;;;;101.10;46.28;;;;;;;;;;4971532;28;21054;-63
2022/08/18 07:04:06;;;;;;;98.13;44.33;;;;;;;;;;4968354;28;20480;-65
2022/08/18 07:06:31;;;;;;;94.07;42.80;;;;;;;;;;4973497;28;20039;-71
2022/08/18 07:09:17;;;;;;;96.60;42.95;;;;;;;;;;4974501;28;20027;-66
2022/08/18 07:11:59;;;;;;;90.85;42.10;;;;;;;;;;4960734;28;20170;-66
2022/08/18 07:14:27;;;;;;;95.55;42.80;;;;;;;;;;4971646;28;20031;-65
2022/08/18 07:17:21;;;;;;;95.50;43.33;;;;;;;;;;4972221;28;20695;-66
2022/08/18 07:19:58;;;;;;;89.97;42.60;;;;;;;;;;4971244;28;20066;-66
2022/08/18 07:22:24;;;;;;;88.70;42.20;;;;;;;;;;4974878;28;20030;-65
2022/08/18 07:24:53;;;;;;;94.72;42.97;;;;;;;;;;4971437;28;20031;-67
2022/08/18 07:27:40;;;;;;;95.57;43.88;;;;;;;;;;4959471;28;20039;-66
2022/08/18 07:30:20;;;;;;;104.88;44.70;;;;;;;;;;4962535;28;20035;-65
2022/08/18 07:33:11;;;;;;;98.30;44.85;;;;;;;;;;4954292;28;20110;-65
2022/08/18 07:35:39;;;;;;;;;;;;;;;;;;4972196;28;20142;-64
2022/08/18 07:38:16;;;;;;;99.32;43.67;;;;;;;;;;4970278;28;19917;-66
2022/08/18 07:40:55;;;;;;;101.93;44.60;;;;;;;;;;4971672;28;20391;-66
2022/08/18 07:43:53;;;;;;;103.55;44.17;;;;;;;;;;4973497;28;20038;-66
2022/08/18 07:46:22;;;;;;;101.60;44.83;;;;;;;;;;4954863;28;20652;-65
2022/08/18 07:48:48;;;;;;;101.35;45.60;;;;;;;;;;4968996;28;20035;-64
2022/08/18 07:51:30;;;;;;;102.38;45.42;;;;;;;;;;4973468;28;20034;-67
2022/08/18 07:54:07;;;;;;;100.15;44.75;;;;;;;;;;4972308;28;20043;-64
2022/08/18 07:56:51;;;;;;;96.60;43.38;;;;;;;;;;4973480;28;20043;-68
2022/08/18 08:00:00;;;;;;;93.95;43.50;;;;;;;;;;4972554;28;20097;-65
2022/08/18 08:02:46;;;;;;;85.22;40.80;;;;;;;;;;4972704;28;20043;-65
2022/08/18 08:05:34;;;;;;;86.28;42.30;;;;;;;;;;4970871;28;20466;-65
2022/08/18 08:08:22;;;;;;;86.53;41.80;;;;;;;;;;4960107;28;20031;-65
2022/08/18 08:10:54;;;;;;;80.55;40.90;;;;;;;;;;4961243;28;20054;-65
2022/08/18 08:13:25;;;;;;;82.05;42.58;;;;;;;;;;4953932;28;20483;-65
2022/08/18 08:16:01;;;;;;;83.80;42.47;;;;;;;;;;4971374;28;20085;-65
2022/08/18 08:19:02;;;;;;;85.70;43.78;;;;;;;;;;4973057;28;20046;-65
2022/08/18 08:21:32;;;;;;;82.28;42.20;;;;;;;;;;4970503;28;20502;-64
2022/08/18 08:24:11;;;;;;;79.47;41.80;;;;;;;;;;4971438;28;20060;-65
2022/08/18 08:27:03;;;;;;;74.07;41.33;;;;;;;;;;4970058;28;20027;-68
2022/08/18 08:29:48;;;;;;;81.00;40.53;;;;;;;;;;4971051;28;20046;-70
2022/08/18 08:33:04;;;;;;;78.10;40.50;;;;;;;;;;4954192;28;20044;-66
2022/08/18 08:35:45;;;;;;;70.68;39.85;;;;;;;;;;4968689;28;20042;-65
2022/08/18 08:38:41;;;;;;;74.13;40.42;;;;;;;;;;4962878;28;20195;-66
2022/08/18 08:41:36;;;;;;;72.28;40.88;;;;;;;;;;4968676;28;20086;-66
2022/08/18 08:44:02;;;;;;;70.03;40.25;;;;;;;;;;4975628;28;20038;-68
2022/08/18 08:46:30;;;;;;;71.03;39.00;;;;;;;;;;4971651;28;20037;-65
2022/08/18 08:49:00;;;;;;;69.95;38.50;;;;;;;;;;4971471;28;20589;-66
2022/08/18 08:51:32;;;;;;;;;;;;;;;;;;4972846;28;20066;-64
2022/08/18 08:54:53;;;;;;;66.13;36.50;;;;;;;;;;4964447;28;19949;-67
2022/08/18 08:57:24;;;;;;;65.93;38.47;;;;;;;;;;4953383;28;20047;-66
2022/08/18 08:59:51;;;;;;;67.70;38.58;;;;;;;;;;4971015;28;20067;-66
2022/08/18 09:02:22;;;;;;;73.63;37.65;;;;;;;;;;4972103;28;20940;-66
2022/08/18 09:04:50;;;;;;;67.07;38.33;;;;;;;;;;4966710;28;20034;-67
2022/08/18 09:07:16;;;;;;;67.45;38.13;;;;;;;;;;4964900;28;20519;-67
2022/08/18 09:09:58;;;;;;;61.72;37.20;;;;;;;;;;4966445;28;20038;-65
2022/08/18 09:12:42;;;;;;;57.15;35.10;;;;;;;;;;4973093;28;20518;-65
2022/08/18 09:15:07;;;;;;;65.10;36.60;;;;;;;;;;4971979;28;20046;-64
2022/08/18 09:17:58;;;;;;;52.10;35.08;;;;;;;;;;4972812;28;20047;-66
2022/08/18 09:20:43;;;;;;;;;;;;;;;;;;4968913;28;20041;-65
2022/08/18 09:23:18;;;;;;;48.20;30.30;;;;;;;;;;4975563;28;19965;-62
2022/08/18 09:25:47;;;;;;;50.33;33.50;;;;;;;;;;4976142;28;20045;-62
2022/08/18 09:28:55;;;;;;;52.05;33.22;;;;;;;;;;4975973;28;20088;-61
2022/08/18 09:31:21;;;;;;;54.50;34.58;;;;;;;;;;4975344;28;20042;-62
2022/08/18 09:33:57;;;;;;;46.25;32.28;;;;;;;;;;4975644;28;20022;-62
2022/08/18 09:36:56;;;;;;;41.42;28.70;;;;;;;;;;4975176;28;20039;-63
2022/08/18 09:42:42;;;;;;;39.63;26.75;;;;;;;;;;4976395;28;20061;-61
2022/08/18 09:45:30;;;;;;;41.13;26.38;;;;;;;;;;4976673;28;20034;-61
2022/08/18 09:48:22;;;;;;;33.67;25.35;;;;;;;;;;4975399;28;20035;-62
2022/08/18 09:50:53;;;;;;;34.60;25.02;;;;;;;;;;4975255;28;20361;-62
2022/08/18 09:54:06;;;;;;;35.42;24.08;;;;;;;;;;4974230;28;20066;-62
2022/08/18 09:56:50;;;;;;;32.65;23.48;;;;;;;;;;4992812;28;20042;-62
2022/08/18 09:59:35;;;;;;;29.52;22.17;;;;;;;;;;4975959;28;20037;-62
2022/08/18 10:02:05;;;;;;;26.42;20.45;;;;;;;;;;4975078;28;20027;-63
2022/08/18 10:04:47;;;;;;;28.77;20.95;;;;;;;;;;4974925;28;20038;-63
2022/08/18 10:07:29;;;;;;;25.65;17.60;;;;;;;;;;4975621;28;20055;-63
2022/08/18 10:10:07;;;;;;;23.95;18.73;;;;;;;;;;4955817;28;20039;-63
2022/08/18 10:12:51;;;;;;;24.92;17.95;;;;;;;;;;4956659;29;20042;-63
2022/08/18 10:15:55;;;;;;;22.27;16.73;;;;;;;;;;4953880;28;20027;-62
2022/08/18 10:18:56;;;;;;;24.05;17.80;;;;;;;;;;4965470;28;20042;-62
2022/08/18 10:21:28;;;;;;;20.80;17.05;;;;;;;;;;4981530;28;20607;-62
2022/08/18 10:24:04;;;;;;;20.48;16.00;;;;;;;;;;4973652;28;20122;-62
2022/08/18 10:26:30;;;;;;;21.33;15.77;;;;;;;;;;4975145;28;20480;-62
2022/08/18 10:28:57;;;;;;;19.35;16.35;;;;;;;;;;4974489;28;20073;-62
2022/08/18 10:31:23;;;;;;;22.40;15.73;;;;;;;;;;4973733;28;20030;-63
2022/08/18 10:34:17;;;;;;;19.40;16.48;;;;;;;;;;4974392;28;20027;-62
2022/08/18 10:36:59;;;;;;;22.00;16.13;;;;;;;;;;4971366;28;20057;-63
2022/08/18 10:39:45;;;;;;;19.42;16.20;;;;;;;;;;4973203;28;20053;-63
2022/08/18 10:42:26;;;;;;;19.90;15.50;;;;;;;;;;4975428;28;20031;-62
2022/08/18 10:45:12;;;;;;;19.80;15.60;;;;;;;;;;4974815;28;20090;-61
2022/08/18 10:47:38;;;;;;;19.20;15.27;;;;;;;;;;4975413;28;20062;-62
2022/08/18 10:50:17;;;;;;;18.80;15.30;;;;;;;;;;4974440;28;20039;-63
2022/08/18 10:53:00;;;;;;;17.33;14.38;;;;;;;;;;4975283;28;20062;-63
2022/08/18 10:55:43;;;;;;;15.95;14.07;;;;;;;;;;4972379;28;20483;-61
2022/08/18 10:58:15;;;;;;;20.38;14.15;;;;;;;;;;4974029;28;20060;-62
2022/08/18 11:01:07;;;;;;;16.52;13.15;;;;;;;;;;4974987;28;20039;-63
2022/08/18 11:03:59;;;;;;;16.08;13.18;;;;;;;;;;4970495;28;20038;-62
2022/08/18 11:06:25;;;;;;;14.40;12.55;;;;;;;;;;4974961;28;20035;-63
2022/08/18 11:08:54;;;;;;;15.18;12.63;;;;;;;;;;4973609;28;20114;-63
2022/08/18 11:11:23;;;;;;;17.58;12.85;;;;;;;;;;4969575;28;20045;-63
2022/08/18 11:14:19;;;;;;;15.57;12.88;;;;;;;;;;4973138;28;20023;-63
2022/08/18 11:17:10;;;;;;;13.63;12.05;;;;;;;;;;4968740;28;20448;-62
2022/08/18 11:19:43;;;;;;;16.65;13.05;;;;;;;;;;4977131;28;20547;-62
2022/08/18 11:22:21;;;;;;;19.00;13.88;;;;;;;;;;4968907;28;20142;-62
2022/08/18 11:24:46;;;;;;;16.95;14.10;;;;;;;;;;4974130;28;20041;-62
2022/08/18 11:27:27;;;;;;;19.73;15.05;;;;;;;;;;4972739;28;20031;-65
2022/08/18 11:29:54;;;;;;;19.30;14.30;;;;;;;;;;4972511;28;20043;-63
2022/08/18 11:32:33;;;;;;;18.20;14.05;;;;;;;;;;4972246;28;20475;-63
2022/08/18 11:35:09;;;;;;;15.20;13.60;;;;;;;;;;4961171;28;20046;-63
2022/08/18 11:37:43;;;;;;;15.75;14.10;;;;;;;;;;4971203;28;20041;-63
2022/08/18 11:40:23;;;;;;;13.52;12.13;;;;;;;;;;4961157;28;20622;-62
2022/08/18 11:43:01;;;;;;;16.70;14.77;;;;;;;;;;4965443;28;20035;-62
2022/08/18 11:45:32;;;;;;;16.42;12.93;;;;;;;;;;4971698;28;20387;-62
2022/08/18 11:48:18;;;;;;;14.93;13.38;;;;;;;;;;4969541;28;20042;-62
2022/08/18 11:50:58;;;;;;;15.60;13.48;;;;;;;;;;4971758;28;20086;-61
2022/08/18 11:53:23;;;;;;;15.38;12.75;;;;;;;;;;4970484;28;20408;-62
2022/08/18 11:56:26;;;;;;;12.73;11.15;;;;;;;;;;4971698;28;20502;-62
2022/08/18 11:59:16;;;;;;;13.43;10.23;;;;;;;;;;4954798;28;20039;-62
2022/08/18 12:01:49;;;;;;;10.18;9.13;;;;;;;;;;4969745;28;20114;-62
2022/08/18 12:04:30;;;;;;;11.95;9.90;;;;;;;;;;4969413;28;20051;-63
2022/08/18 12:06:58;;;;;;;;;;;;;;;;;;4971904;28;20078;-63
2022/08/18 12:09:45;;;;;;;13.27;10.27;;;;;;;;;;4973307;28;20372;-62
2022/08/18 12:12:21;;;;;;;15.15;11.30;;;;;;;;;;4969888;28;20111;-62
2022/08/18 12:14:57;;;;;;;13.73;11.35;;;;;;;;;;4968783;28;20094;-61
2022/08/18 12:17:22;;;;;;;13.38;11.98;;;;;;;;;;4971720;28;20050;-62
2022/08/18 12:19:48;;;;;;;13.90;12.40;;;;;;;;;;4971703;28;20057;-62
2022/08/18 12:22:22;;;;;;;16.70;13.20;;;;;;;;;;4970973;28;20065;-62
2022/08/18 12:24:50;;;;;;;13.23;11.82;;;;;;;;;;4972853;28;20483;-63
2022/08/18 12:27:19;;;;;;;15.73;14.00;;;;;;;;;;4969223;28;20041;-62
2022/08/18 12:29:45;;;;;;;16.20;14.50;;;;;;;;;;4973846;28;20506;-63
2022/08/18 12:32:11;;;;;;;16.40;14.18;;;;;;;;;;4969540;28;20030;-63
2022/08/18 12:34:37;;;;;;;13.70;12.30;;;;;;;;;;4972638;28;20038;-63
2022/08/18 12:37:03;;;;;;;15.68;12.57;;;;;;;;;;4969827;28;20388;-63
2022/08/18 12:39:29;;;;;;;15.55;13.98;;;;;;;;;;4968372;28;20519;-62
2022/08/18 12:41:55;;;;;;;14.25;12.57;;;;;;;;;;4972411;28;20459;-64
2022/08/18 12:44:21;;;;;;;13.30;12.00;;;;;;;;;;4971062;28;20034;-62
2022/08/18 12:46:47;;;;;;;12.38;10.95;;;;;;;;;;4971728;28;20042;-63
2022/08/18 12:49:22;;;;;;;10.15;9.15;;;;;;;;;;4971136;28;20027;-63
2022/08/18 12:51:48;;;;;;;10.50;9.35;;;;;;;;;;4969475;28;20031;-63
2022/08/18 12:54:14;;;;;;;11.18;9.98;;;;;;;;;;4969844;28;20042;-62
2022/08/18 12:56:52;;;;;;;9.77;8.77;;;;;;;;;;4971342;28;20093;-63
2022/08/18 12:59:18;;;;;;;10.48;9.38;;;;;;;;;;4972504;28;20077;-62
2022/08/18 13:01:44;;;;;;;10.93;9.75;;;;;;;;;;4970727;28;20035;-63
2022/08/18 13:04:09;;;;;;;10.00;9.00;;;;;;;;;;4970239;28;20042;-63
2022/08/18 13:06:39;;;;;;;12.38;11.10;;;;;;;;;;4969744;28;20035;-62
2022/08/18 13:09:06;;;;;;;13.88;11.05;;;;;;;;;;4971954;28;20035;-63
2022/08/18 13:11:31;;;;;;;11.05;9.93;;;;;;;;;;4968787;28;20039;-62
2022/08/18 13:13:57;;;;;;;10.93;9.82;;;;;;;;;;4970055;28;20113;-63
2022/08/18 13:16:24;;;;;;;10.77;9.68;;;;;;;;;;4965980;28;20487;-62
2022/08/18 13:18:49;;;;;;;10.45;9.30;;;;;;;;;;4967570;28;20046;-63
2022/08/18 13:21:17;;;;;;;8.90;8.00;;;;;;;;;;4970647;28;20110;-63
2022/08/18 13:23:43;;;;;;;8.40;7.45;;;;;;;;;;4972842;28;20035;-62
2022/08/18 13:26:23;;;;;;;7.30;6.32;;;;;;;;;;4971267;28;20088;-63
2022/08/18 13:28:49;;;;;;;8.77;7.50;;;;;;;;;;4970782;28;20042;-62
2022/08/18 13:31:14;;;;;;;10.88;8.32;;;;;;;;;;4968567;28;20093;-63
2022/08/18 13:33:41;;;;;;;9.68;8.25;;;;;;;;;;4972390;28;20031;-63
2022/08/18 13:36:07;;;;;;;7.60;6.90;;;;;;;;;;4970771;28;20360;-65
2022/08/18 13:38:32;;;;;;;7.90;7.10;;;;;;;;;;4972239;28;20034;-63
2022/08/18 13:41:02;;;;;;;7.82;7.03;;;;;;;;;;4969332;28;20094;-64
2022/08/18 13:43:37;;;;;;;7.25;6.50;;;;;;;;;;4960237;28;20456;-63
2022/08/18 13:46:07;;;;;;;6.90;6.20;;;;;;;;;;4966291;28;20046;-64
2022/08/18 13:48:33;;;;;;;6.68;5.90;;;;;;;;;;4972324;28;20530;-64
2022/08/18 13:51:00;;;;;;;8.63;6.70;;;;;;;;;;4970511;28;20062;-65
2022/08/18 13:53:27;;;;;;;6.88;6.10;;;;;;;;;;4972498;28;20084;-63
2022/08/18 13:55:53;;;;;;;8.18;6.63;;;;;;;;;;4971559;28;20031;-63
2022/08/18 13:58:19;;;;;;;8.07;6.45;;;;;;;;;;4969647;28;20069;-63
2022/08/18 14:00:45;;;;;;;10.25;6.30;;;;;;;;;;4971176;28;20062;-63
2022/08/18 14:03:11;;;;;;;6.53;5.72;;;;;;;;;;4970164;28;20114;-63
2022/08/18 14:05:37;;;;;;;6.78;6.00;;;;;;;;;;4970052;28;20138;-63
2022/08/18 14:08:03;;;;;;;6.60;5.90;;;;;;;;;;4972892;28;20105;-63
2022/08/18 14:10:30;;;;;;;5.97;5.38;;;;;;;;;;4974301;28;20506;-63
2022/08/18 14:12:58;;;;;;;6.32;5.32;;;;;;;;;;4973530;28;20112;-63
2022/08/18 14:15:23;;;;;;;6.80;5.70;;;;;;;;;;4973882;28;20475;-63
2022/08/18 14:17:49;;;;;;;7.28;5.55;;;;;;;;;;4973867;28;20042;-63
2022/08/18 14:28:31;;;;;;;6.65;4.70;;;;;;;;;;4961820;28;20053;-63
2022/08/18 14:30:58;;;;;;;4.97;4.45;;;;;;;;;;4966051;28;20041;-64
2022/08/18 14:33:26;;;;;;;5.93;4.78;;;;;;;;;;4975053;28;20448;-64
2022/08/18 14:35:52;;;;;;;5.43;4.53;;;;;;;;;;4973570;28;20035;-63
2022/08/18 14:38:18;;;;;;;5.80;4.38;;;;;;;;;;4972986;28;20700;-63
2022/08/18 14:40:46;;;;;;;7.70;5.15;;;;;;;;;;4970698;28;20114;-64
2022/08/18 14:43:14;;;;;;;6.20;4.70;;;;;;;;;;4970975;28;20443;-63
2022/08/18 14:45:47;;;;;;;8.45;4.68;;;;;;;;;;4971539;28;20486;-63
2022/08/18 14:48:17;;;;;;;6.25;5.00;;;;;;;;;;4972138;28;20035;-63
2022/08/18 14:50:51;;;;;;;6.32;4.50;;;;;;;;;;4973599;28;20041;-64
2022/08/18 14:53:22;;;;;;;5.90;4.50;;;;;;;;;;4970403;28;20046;-63
2022/08/18 14:55:51;;;;;;;4.80;4.10;;;;;;;;;;4975112;28;20123;-63
2022/08/18 14:58:17;;;;;;;4.97;3.97;;;;;;;;;;4970383;28;20047;-65
2022/08/18 15:00:43;;;;;;;5.20;4.10;;;;;;;;;;4971679;28;20474;-64
2022/08/18 15:03:09;;;;;;;7.95;3.92;;;;;;;;;;4971053;28;20483;-63
2022/08/18 15:05:35;;;;;;;5.60;4.53;;;;;;;;;;4974458;28;20031;-63
2022/08/18 15:08:02;;;;;;;3.90;3.50;;;;;;;;;;4972475;28;20419;-67
2022/08/18 15:10:29;;;;;;;5.28;3.92;;;;;;;;;;4965522;28;20027;-64
2022/08/18 15:12:56;;;;;;;4.15;3.70;;;;;;;;;;4972191;28;20505;-63